createdAt,value
2023-05-03T00:00:23.785Z,11.20
2023-05-03T00:02:53.922Z,11.20
2023-05-03T00:05:21.538Z,11.10
2023-05-03T00:07:49.733Z,11.00
2023-05-03T00:10:17.389Z,11.10
2023-05-03T00:12:45.037Z,11.10
2023-05-03T00:15:12.607Z,11.10
2023-05-03T00:17:40.170Z,11.10
2023-05-03T00:20:08.435Z,11.10
2023-05-03T00:22:36.588Z,11.10
2023-05-03T00:25:04.786Z,11.20
2023-05-03T00:27:32.395Z,11.10
2023-05-03T00:30:00.283Z,11.00
2023-05-03T00:32:28.411Z,11.00
2023-05-03T00:34:57.310Z,11.00
2023-05-03T00:37:25.989Z,11.00
2023-05-03T00:39:53.810Z,11.00
2023-05-03T00:42:21.348Z,11.10
2023-05-03T00:44:48.888Z,11.00
2023-05-03T00:47:17.157Z,11.00
2023-05-03T00:49:45.289Z,10.90
2023-05-03T00:52:13.514Z,10.80
2023-05-03T00:54:41.326Z,10.80
2023-05-03T00:57:08.885Z,10.80
2023-05-03T00:59:37.754Z,10.80
2023-05-03T01:02:05.751Z,10.80
2023-05-03T01:04:33.348Z,10.60
2023-05-03T01:07:23.623Z,10.50
2023-05-03T01:10:01.985Z,10.50
2023-05-03T01:12:53.993Z,10.50
2023-05-03T01:15:44.128Z,10.50
2023-05-03T01:18:18.506Z,10.60
2023-05-03T01:20:49.923Z,10.60
2023-05-03T01:24:04.189Z,10.50
2023-05-03T01:26:33.285Z,10.60
2023-05-03T01:29:00.837Z,10.60
2023-05-03T01:31:53.393Z,10.50
2023-05-03T01:35:08.840Z,10.40
2023-05-03T01:37:37.859Z,10.20
2023-05-03T01:40:08.788Z,10.10
2023-05-03T01:42:38.572Z,10.00
2023-05-03T01:45:07.135Z,10.00
2023-05-03T01:47:35.092Z,10.00
2023-05-03T01:50:02.970Z,10.00
2023-05-03T01:52:31.174Z,10.00
2023-05-03T01:54:59.993Z,10.00
2023-05-03T01:57:27.582Z,9.90
2023-05-03T01:59:55.175Z,9.80
2023-05-03T02:02:22.694Z,9.80
2023-05-03T02:04:50.650Z,9.60
2023-05-03T02:07:19.233Z,9.50
2023-05-03T02:09:46.850Z,9.50
2023-05-03T02:12:14.319Z,9.50
2023-05-03T02:14:41.946Z,9.40
2023-05-03T02:17:10.444Z,9.50
2023-05-03T02:19:38.624Z,9.40
2023-05-03T02:22:07.590Z,9.50
2023-05-03T02:24:36.168Z,9.60
2023-05-03T02:27:04.734Z,9.60
2023-05-03T02:29:33.366Z,9.60
2023-05-03T02:32:05.420Z,9.60
2023-05-03T02:34:33.471Z,9.50
2023-05-03T02:37:01.131Z,9.50
2023-05-03T02:39:30.417Z,9.60
2023-05-03T02:41:58.583Z,9.60
2023-05-03T02:44:26.793Z,9.60
2023-05-03T02:46:54.858Z,9.60
2023-05-03T02:49:23.172Z,9.50
2023-05-03T02:51:52.875Z,9.40
2023-05-03T02:54:20.407Z,9.50
2023-05-03T02:56:47.958Z,9.40
2023-05-03T02:59:15.610Z,9.50
2023-05-03T03:01:43.298Z,9.40
2023-05-03T03:04:11.261Z,9.40
2023-05-03T03:06:38.805Z,9.40
2023-05-03T03:09:06.409Z,9.30
2023-05-03T03:11:35.984Z,9.30
2023-05-03T03:14:03.476Z,9.20
2023-05-03T03:16:31.278Z,9.20
2023-05-03T03:18:58.958Z,9.20
2023-05-03T03:21:29.550Z,9.20
2023-05-03T03:23:57.142Z,9.10
2023-05-03T03:26:26.148Z,9.10
2023-05-03T03:28:53.739Z,9.10
2023-05-03T03:31:23.038Z,9.10
2023-05-03T03:33:51.082Z,9.00
2023-05-03T03:36:21.264Z,9.00
2023-05-03T03:38:49.941Z,9.00
2023-05-03T03:41:19.291Z,9.00
2023-05-03T03:43:47.451Z,9.00
2023-05-03T03:46:19.070Z,9.00
2023-05-03T03:48:50.987Z,8.80
2023-05-03T03:51:18.574Z,8.70
2023-05-03T03:53:48.180Z,8.70
2023-05-03T03:56:16.516Z,8.80
2023-05-03T03:58:44.092Z,8.80
2023-05-03T04:01:12.901Z,8.70
2023-05-03T04:03:40.762Z,8.70
2023-05-03T04:06:08.646Z,8.70
2023-05-03T04:08:37.149Z,8.60
2023-05-03T04:11:10.380Z,8.60
2023-05-03T04:13:39.743Z,8.40
2023-05-03T04:16:08.132Z,8.40
2023-05-03T04:18:36.666Z,8.40
2023-05-03T04:21:05.343Z,8.40
2023-05-03T04:23:32.987Z,8.40
2023-05-03T04:26:02.618Z,8.30
2023-05-03T04:28:34.699Z,8.20
2023-05-03T04:31:02.406Z,8.20
2023-05-03T04:33:31.641Z,8.20
2023-05-03T04:36:04.455Z,8.20
2023-05-03T04:38:32.732Z,8.20
2023-05-03T04:41:02.742Z,8.20
2023-05-03T04:43:32.909Z,8.30
2023-05-03T04:46:00.843Z,8.30
2023-05-03T04:48:28.413Z,8.20
2023-05-03T04:50:55.923Z,8.20
2023-05-03T04:53:24.544Z,8.20
2023-05-03T04:56:01.288Z,8.20
2023-05-03T04:58:31.027Z,8.30
2023-05-03T05:00:59.172Z,8.40
2023-05-03T05:03:31.481Z,8.50
2023-05-03T05:06:01.623Z,8.50
2023-05-03T05:08:30.718Z,8.60
2023-05-03T05:10:58.949Z,8.60
2023-05-03T05:13:31.755Z,8.70
2023-05-03T05:15:59.265Z,8.80
2023-05-03T05:18:26.821Z,8.80
2023-05-03T05:20:56.437Z,8.80
2023-05-03T05:23:26.149Z,8.80
2023-05-03T05:25:54.047Z,8.90
2023-05-03T05:28:21.938Z,8.90
2023-05-03T05:30:49.447Z,9.00
2023-05-03T05:33:19.077Z,9.00
2023-05-03T05:35:49.051Z,9.00
2023-05-03T05:38:18.644Z,9.00
2023-05-03T05:40:46.154Z,9.10
2023-05-03T05:43:13.684Z,9.10
2023-05-03T05:45:44.146Z,9.10
2023-05-03T05:48:12.208Z,9.10
2023-05-03T05:50:41.057Z,9.10
2023-05-03T05:53:11.809Z,9.20
2023-05-03T05:55:44.661Z,9.20
2023-05-03T05:58:13.735Z,9.30
2023-05-03T06:00:48.887Z,9.30
2023-05-03T06:03:17.065Z,9.30
2023-05-03T06:05:45.484Z,9.40
2023-05-03T06:08:13.027Z,9.50
2023-05-03T06:10:40.821Z,9.50
2023-05-03T06:13:08.370Z,9.60
2023-05-03T06:15:36.064Z,9.60
2023-05-03T06:18:04.604Z,9.60
2023-05-03T06:20:32.446Z,9.70
2023-05-03T06:23:00.428Z,9.70
2023-05-03T06:25:27.952Z,9.80
2023-05-03T06:27:55.482Z,9.80
2023-05-03T06:30:28.288Z,9.70
2023-05-03T06:32:59.714Z,9.80
2023-05-03T06:35:28.470Z,9.90
2023-05-03T06:37:55.993Z,10.00
2023-05-03T06:40:25.827Z,10.00
2023-05-03T06:42:53.327Z,10.00
2023-05-03T06:45:35.261Z,10.00
2023-05-03T06:48:02.978Z,10.00
2023-05-03T06:50:30.732Z,10.10
2023-05-03T06:52:58.233Z,10.30
2023-05-03T06:55:25.788Z,10.30
2023-05-03T06:57:53.703Z,10.30
2023-05-03T07:00:23.186Z,10.40
2023-05-03T07:02:50.806Z,10.50
2023-05-03T07:05:18.414Z,10.50
2023-05-03T07:07:46.215Z,10.60
2023-05-03T07:10:13.743Z,10.70
2023-05-03T07:12:41.337Z,10.80
2023-05-03T07:15:10.085Z,10.90
2023-05-03T07:17:37.635Z,11.00
2023-05-03T07:20:06.635Z,11.20
2023-05-03T07:22:36.063Z,11.30
2023-05-03T07:25:04.879Z,11.40
2023-05-03T07:27:32.470Z,11.60
2023-05-03T07:30:00.503Z,11.50
2023-05-03T07:32:28.122Z,11.70
2023-05-03T07:34:55.662Z,11.70
2023-05-03T07:37:23.311Z,11.90
2023-05-03T07:39:50.963Z,12.00
2023-05-03T07:42:18.743Z,12.10
2023-05-03T07:44:46.304Z,12.20
2023-05-03T07:47:13.790Z,12.20
2023-05-03T07:49:41.349Z,12.30
2023-05-03T07:52:09.847Z,12.50
2023-05-03T07:54:37.399Z,12.60
2023-05-03T07:57:06.162Z,12.70
2023-05-03T07:59:33.640Z,12.70
2023-05-03T08:02:01.854Z,12.80
2023-05-03T08:04:29.798Z,12.90
2023-05-03T08:07:04.162Z,13.00
2023-05-03T08:09:31.650Z,13.10
2023-05-03T08:11:59.201Z,13.10
2023-05-03T08:14:27.594Z,13.10
2023-05-03T08:16:55.424Z,13.20
2023-05-03T08:19:23.092Z,13.20
2023-05-03T08:21:54.129Z,13.10
2023-05-03T08:24:23.044Z,13.10
2023-05-03T08:26:50.931Z,13.30
2023-05-03T08:29:18.581Z,13.40
2023-05-03T08:31:46.462Z,13.50
2023-05-03T08:34:14.009Z,13.60
2023-05-03T08:36:41.538Z,13.60
2023-05-03T08:39:10.290Z,13.60
2023-05-03T08:41:40.248Z,13.60
2023-05-03T08:44:11.329Z,13.50
2023-05-03T08:46:39.009Z,13.50
2023-05-03T08:49:07.533Z,13.50
2023-05-03T08:51:40.276Z,13.70
2023-05-03T08:54:08.596Z,13.80
2023-05-03T08:56:44.013Z,13.60
2023-05-03T08:59:11.892Z,13.40
2023-05-03T09:01:41.624Z,13.50
2023-05-03T09:04:11.333Z,13.60
2023-05-03T09:06:39.623Z,13.70
2023-05-03T09:09:08.410Z,13.90
2023-05-03T09:11:38.903Z,13.90
2023-05-03T09:14:16.379Z,14.00
2023-05-03T09:16:46.523Z,14.20
2023-05-03T09:19:15.712Z,14.30
2023-05-03T09:21:49.084Z,14.40
2023-05-03T09:24:22.016Z,14.40
2023-05-03T09:26:51.945Z,14.40
2023-05-03T09:29:35.920Z,14.50
2023-05-03T09:32:06.246Z,14.50
2023-05-03T09:34:35.212Z,14.40
2023-05-03T09:37:02.916Z,14.50
2023-05-03T09:39:30.494Z,14.70
2023-05-03T09:41:58.398Z,14.90
2023-05-03T09:44:44.221Z,15.10
2023-05-03T09:47:12.352Z,15.30
2023-05-03T09:49:39.976Z,15.40
2023-05-03T09:52:08.853Z,15.40
2023-05-03T09:54:36.909Z,15.40
2023-05-03T09:57:07.095Z,15.30
2023-05-03T09:59:37.483Z,15.50
2023-05-03T10:02:08.291Z,15.60
2023-05-03T10:04:48.138Z,15.70
2023-05-03T10:07:20.163Z,15.80
2023-05-03T10:09:48.799Z,15.90
2023-05-03T10:12:19.360Z,16.10
2023-05-03T10:14:49.973Z,16.00
2023-05-03T10:17:46.164Z,16.00
2023-05-03T10:20:33.512Z,16.10
2023-05-03T10:23:13.743Z,15.80
2023-05-03T10:26:07.270Z,15.80
2023-05-03T10:28:34.903Z,16.00
2023-05-03T10:31:03.094Z,16.00
2023-05-03T10:33:37.238Z,16.10
2023-05-03T10:36:07.362Z,16.00
2023-05-03T10:38:36.748Z,16.00
2023-05-03T10:41:06.649Z,16.00
2023-05-03T10:43:34.095Z,15.90
2023-05-03T10:46:03.281Z,16.00
2023-05-03T10:48:32.545Z,16.10
2023-05-03T10:51:32.843Z,16.20
2023-05-03T10:54:00.452Z,16.20
2023-05-03T10:56:28.002Z,16.20
2023-05-03T10:58:58.570Z,16.30
2023-05-03T11:01:27.858Z,16.40
2023-05-03T11:04:19.676Z,16.60
2023-05-03T11:06:51.054Z,16.60
2023-05-03T11:09:18.746Z,16.60
2023-05-03T11:11:46.350Z,16.70
2023-05-03T11:14:14.032Z,16.80
2023-05-03T11:16:47.796Z,16.90
2023-05-03T11:19:16.192Z,17.10
2023-05-03T11:21:46.273Z,17.10
2023-05-03T11:24:15.502Z,17.10
2023-05-03T11:26:43.083Z,17.00
2023-05-03T11:29:11.784Z,16.90
2023-05-03T11:31:42.864Z,17.00
2023-05-03T11:34:12.356Z,17.20
2023-05-03T11:36:42.121Z,17.30
2023-05-03T11:39:11.600Z,17.50
2023-05-03T11:41:39.265Z,17.60
2023-05-03T11:44:15.879Z,17.70
2023-05-03T11:46:46.801Z,17.80
2023-05-03T11:49:18.764Z,17.80
2023-05-03T11:51:49.888Z,17.90
2023-05-03T11:54:26.068Z,18.10
2023-05-03T11:56:59.533Z,18.10
2023-05-03T11:59:40.982Z,18.10
2023-05-03T12:02:12.604Z,18.20
2023-05-03T12:04:43.203Z,18.30
2023-05-03T12:07:13.192Z,18.30
2023-05-03T12:09:43.568Z,18.20
2023-05-03T12:12:24.086Z,18.20
2023-05-03T12:15:03.726Z,18.30
2023-05-03T12:17:44.437Z,18.30
2023-05-03T12:22:57.949Z,18.50
2023-05-03T12:25:28.220Z,18.70
2023-05-03T12:28:18.805Z,18.70
2023-05-03T12:30:47.790Z,18.80
2023-05-03T12:33:17.021Z,18.70
2023-05-03T12:35:47.722Z,18.80
2023-05-03T12:38:17.459Z,18.90
2023-05-03T12:40:46.808Z,19.10
2023-05-03T12:43:14.842Z,19.30
2023-05-03T12:45:46.484Z,19.40
2023-05-03T12:48:17.732Z,19.50
2023-05-03T12:50:45.889Z,19.60
2023-05-03T12:53:16.913Z,19.70
2023-05-03T12:55:50.679Z,19.80
2023-05-03T13:01:15.785Z,19.80
2023-05-03T13:03:43.425Z,19.70
2023-05-03T13:06:14.643Z,19.90
2023-05-03T13:11:13.359Z,20.50
2023-05-03T13:13:40.993Z,20.60
2023-05-03T13:16:09.276Z,20.80
2023-05-03T13:18:37.114Z,21.00
2023-05-03T13:21:05.012Z,21.00
2023-05-03T13:23:33.910Z,21.10
2023-05-03T13:26:01.392Z,21.10
2023-05-03T13:28:28.965Z,21.20
2023-05-03T13:30:57.094Z,21.50
2023-05-03T13:33:25.109Z,21.60
2023-05-03T13:35:52.658Z,21.80
2023-05-03T13:38:20.656Z,21.90
2023-05-03T13:40:48.177Z,21.80
2023-05-03T13:43:15.789Z,21.60
2023-05-03T13:45:43.282Z,21.10
2023-05-03T13:48:18.774Z,20.80
2023-05-03T13:50:46.902Z,20.60
2023-05-03T13:53:14.860Z,20.30
2023-05-03T13:55:42.415Z,20.20
2023-05-03T13:58:09.915Z,20.40
2023-05-03T14:00:37.442Z,20.70
2023-05-03T14:03:06.468Z,21.00
2023-05-03T14:05:34.784Z,21.30
2023-05-03T14:08:02.265Z,21.60
2023-05-03T14:10:29.760Z,22.10
2023-05-03T14:12:57.929Z,22.20
2023-05-03T14:15:25.663Z,22.30
2023-05-03T14:17:54.131Z,22.40
2023-05-03T14:20:23.777Z,22.40
2023-05-03T14:22:51.319Z,22.30
2023-05-03T14:25:19.440Z,22.20
2023-05-03T14:27:47.232Z,22.00
2023-05-03T14:30:15.348Z,22.20
2023-05-03T14:32:42.862Z,22.40
2023-05-03T14:35:10.537Z,22.70
2023-05-03T14:37:38.117Z,23.00
2023-05-03T14:40:07.843Z,23.20
2023-05-03T14:42:35.668Z,23.20
2023-05-03T14:45:04.017Z,22.90
2023-05-03T14:47:32.134Z,22.90
2023-05-03T14:49:59.912Z,22.70
2023-05-03T14:52:27.781Z,22.40
2023-05-03T14:54:55.360Z,22.60
2023-05-03T14:57:22.865Z,22.60
2023-05-03T14:59:50.653Z,22.80
2023-05-03T15:02:19.152Z,23.10
2023-05-03T15:04:46.833Z,23.40
2023-05-03T15:07:15.375Z,23.60
2023-05-03T15:09:44.700Z,23.80
2023-05-03T15:12:12.177Z,23.90
2023-05-03T15:14:39.747Z,24.00
2023-05-03T15:17:07.252Z,24.10
2023-05-03T15:19:34.783Z,24.30
2023-05-03T15:22:02.337Z,24.40
2023-05-03T15:24:29.906Z,24.30
2023-05-03T15:26:57.380Z,24.10
2023-05-03T15:29:24.904Z,24.00
2023-05-03T15:31:52.783Z,24.10
2023-05-03T15:34:20.482Z,24.00
2023-05-03T15:36:48.035Z,24.00
2023-05-03T15:39:15.839Z,23.90
2023-05-03T15:41:45.426Z,24.00
2023-05-03T15:44:14.796Z,24.00
2023-05-03T15:46:43.117Z,24.10
2023-05-03T15:49:11.945Z,24.20
2023-05-03T15:51:39.469Z,23.90
2023-05-03T15:54:07.099Z,23.40
2023-05-03T15:56:34.675Z,23.00
2023-05-03T15:59:02.182Z,22.70
2023-05-03T16:01:29.744Z,22.20
2023-05-03T16:03:57.290Z,21.90
2023-05-03T16:06:24.860Z,21.70
2023-05-03T16:08:52.543Z,21.70
2023-05-03T16:11:20.122Z,21.60
2023-05-03T16:13:47.898Z,21.50
2023-05-03T16:16:15.571Z,21.60
2023-05-03T16:18:43.102Z,21.50
2023-05-03T16:21:11.315Z,21.50
2023-05-03T16:23:38.833Z,21.40
2023-05-03T16:26:14.299Z,21.30
2023-05-03T16:28:41.841Z,21.10
2023-05-03T16:31:09.401Z,21.00
2023-05-03T16:33:36.929Z,21.00
2023-05-03T16:36:04.898Z,20.90
2023-05-03T16:38:32.431Z,20.80
2023-05-03T16:41:01.636Z,20.70
2023-05-03T16:43:30.147Z,20.70
2023-05-03T16:46:01.491Z,20.60
2023-05-03T16:48:33.170Z,20.50
2023-05-03T16:51:00.896Z,20.50
2023-05-03T16:53:28.496Z,20.50
2023-05-03T16:55:56.508Z,20.30
2023-05-03T16:58:24.041Z,20.30
2023-05-03T17:00:51.988Z,20.20
2023-05-03T17:03:19.622Z,20.10
2023-05-03T17:05:47.347Z,20.00
2023-05-03T17:08:15.371Z,19.90
2023-05-03T17:10:43.216Z,19.90
2023-05-03T17:13:11.093Z,19.80
2023-05-03T17:15:39.003Z,19.70
2023-05-03T17:18:06.789Z,19.70
2023-05-03T17:20:35.161Z,19.70
2023-05-03T17:23:02.664Z,19.70
2023-05-03T17:25:30.429Z,19.70
2023-05-03T17:27:58.479Z,19.70
2023-05-03T17:30:26.214Z,19.60
2023-05-03T17:32:54.209Z,19.50
2023-05-03T17:35:21.820Z,19.50
2023-05-03T17:37:49.510Z,19.50
2023-05-03T17:40:17.094Z,19.40
2023-05-03T17:42:46.832Z,19.30
2023-05-03T17:45:14.621Z,19.20
2023-05-03T17:47:42.196Z,19.10
2023-05-03T17:50:11.724Z,19.00
2023-05-03T17:52:40.532Z,18.90
2023-05-03T17:55:08.636Z,18.80
2023-05-03T17:57:37.358Z,18.70
2023-05-03T18:00:06.934Z,18.80
2023-05-03T18:02:34.758Z,18.70
2023-05-03T18:05:03.191Z,18.60
2023-05-03T18:07:30.677Z,18.50
2023-05-03T18:09:59.545Z,18.40
2023-05-03T18:12:30.455Z,18.30
2023-05-03T18:15:00.654Z,18.30
2023-05-03T18:17:29.667Z,18.20
2023-05-03T18:19:57.231Z,18.10
2023-05-03T18:22:27.414Z,18.00
2023-05-03T18:24:55.286Z,18.00
2023-05-03T18:27:22.777Z,17.80
2023-05-03T18:29:50.653Z,17.70
2023-05-03T18:32:18.166Z,17.70
2023-05-03T18:34:45.707Z,17.60
2023-05-03T18:37:13.449Z,17.50
2023-05-03T18:39:40.967Z,17.40
2023-05-03T18:42:08.531Z,17.40
2023-05-03T18:44:36.103Z,17.40
2023-05-03T18:47:03.693Z,17.20
2023-05-03T18:49:31.242Z,17.10
2023-05-03T18:51:58.938Z,17.00
2023-05-03T18:54:26.494Z,16.90
2023-05-03T18:56:54.087Z,16.80
2023-05-03T18:59:21.590Z,16.70
2023-05-03T19:01:50.163Z,16.60
2023-05-03T19:04:17.800Z,16.50
2023-05-03T19:06:45.541Z,16.50
2023-05-03T19:09:13.603Z,16.50
2023-05-03T19:11:42.716Z,16.40
2023-05-03T19:14:10.360Z,16.30
2023-05-03T19:16:38.010Z,16.30
2023-05-03T19:19:05.493Z,16.20
2023-05-03T19:21:34.842Z,16.10
2023-05-03T19:24:02.524Z,16.00
2023-05-03T19:26:30.051Z,16.00
2023-05-03T19:28:57.529Z,16.00
2023-05-03T19:31:25.080Z,15.90
2023-05-03T19:33:52.727Z,15.80
2023-05-03T19:36:20.226Z,15.80
2023-05-03T19:38:47.756Z,15.70
2023-05-03T19:41:15.249Z,15.60
2023-05-03T19:43:42.784Z,15.50
2023-05-03T19:46:10.721Z,15.50
2023-05-03T19:48:38.277Z,15.40
2023-05-03T19:51:05.818Z,15.30
2023-05-03T19:53:33.806Z,15.30
2023-05-03T19:56:02.809Z,15.30
2023-05-03T19:58:31.924Z,15.20
2023-05-03T20:00:59.643Z,15.20
2023-05-03T20:03:27.647Z,15.10
2023-05-03T20:05:55.411Z,15.00
2023-05-03T20:08:24.129Z,14.90
2023-05-03T20:10:51.772Z,14.90
2023-05-03T20:13:19.414Z,14.90
2023-05-03T20:15:47.055Z,14.80
2023-05-03T20:18:15.211Z,14.80
2023-05-03T20:20:43.344Z,14.70
2023-05-03T20:23:11.845Z,14.70
2023-05-03T20:25:39.390Z,14.60
2023-05-03T20:28:06.974Z,14.60
2023-05-03T20:30:34.736Z,14.60
2023-05-03T20:33:02.497Z,14.50
2023-05-03T20:35:30.230Z,14.40
2023-05-03T20:37:57.782Z,14.40
2023-05-03T20:40:25.411Z,14.40
2023-05-03T20:42:52.897Z,14.30
2023-05-03T20:45:20.416Z,14.30
2023-05-03T20:47:48.021Z,14.20
2023-05-03T20:50:15.548Z,14.30
2023-05-03T20:52:43.173Z,14.10
2023-05-03T20:55:10.700Z,14.00
2023-05-03T20:57:42.062Z,14.00
2023-05-03T21:00:15.700Z,14.00
2023-05-03T21:02:43.504Z,13.90
2023-05-03T21:05:11.297Z,13.90
2023-05-03T21:07:39.110Z,13.80
2023-05-03T21:10:08.069Z,13.80
2023-05-03T21:12:35.773Z,13.70
2023-05-03T21:15:03.558Z,13.70
2023-05-03T21:17:31.098Z,13.70
2023-05-03T21:19:58.629Z,13.60
2023-05-03T21:22:26.796Z,13.60
2023-05-03T21:24:54.757Z,13.70
2023-05-03T21:27:22.334Z,13.70
2023-05-03T21:29:49.846Z,13.60
2023-05-03T21:32:17.441Z,13.60
2023-05-03T21:34:44.977Z,13.60
2023-05-03T21:37:12.478Z,13.60
2023-05-03T21:39:40.020Z,13.60
2023-05-03T21:42:07.525Z,13.40
2023-05-03T21:44:35.105Z,13.30
2023-05-03T21:47:03.058Z,13.30
2023-05-03T21:49:30.583Z,13.20
2023-05-03T21:51:58.152Z,13.10
2023-05-03T21:54:26.836Z,13.10
2023-05-03T21:56:54.306Z,13.10
2023-05-03T21:59:21.843Z,13.10
2023-05-03T22:01:50.186Z,13.10
2023-05-03T22:04:17.792Z,13.00
2023-05-03T22:06:45.612Z,13.10
2023-05-03T22:09:13.147Z,13.10
2023-05-03T22:11:41.357Z,13.10
2023-05-03T22:14:09.248Z,13.10
2023-05-03T22:16:42.157Z,13.00
2023-05-03T22:19:10.063Z,13.00
2023-05-03T22:21:37.555Z,13.00
2023-05-03T22:24:05.465Z,12.90
2023-05-03T22:26:33.034Z,12.90
2023-05-03T22:29:00.985Z,12.90
2023-05-03T22:31:30.145Z,12.90
2023-05-03T22:33:57.819Z,12.80
2023-05-03T22:36:25.427Z,12.80
2023-05-03T22:39:00.547Z,12.80
2023-05-03T22:41:28.096Z,12.70
2023-05-03T22:43:55.616Z,12.70
2023-05-03T22:46:23.911Z,12.60
2023-05-03T22:48:51.858Z,12.60
2023-05-03T22:51:19.354Z,12.70
2023-05-03T22:53:46.862Z,12.70
2023-05-03T22:56:14.438Z,12.70
2023-05-03T22:58:42.092Z,12.60
2023-05-03T23:01:12.482Z,12.60
2023-05-03T23:03:41.056Z,12.50
2023-05-03T23:06:08.814Z,12.50
2023-05-03T23:08:36.377Z,12.50
2023-05-03T23:11:04.228Z,12.50
2023-05-03T23:13:31.758Z,12.50
2023-05-03T23:15:59.748Z,12.40
2023-05-03T23:18:27.413Z,12.40
2023-05-03T23:20:55.246Z,12.40
2023-05-03T23:23:23.656Z,12.40
2023-05-03T23:25:52.078Z,12.40
2023-05-03T23:28:20.849Z,12.40
2023-05-03T23:30:49.304Z,12.40
2023-05-03T23:33:17.219Z,12.40
2023-05-03T23:35:45.054Z,12.40
2023-05-03T23:38:12.593Z,12.50
2023-05-03T23:40:40.153Z,12.50
2023-05-03T23:43:07.708Z,12.50
2023-05-03T23:45:35.564Z,12.50
2023-05-03T23:48:03.137Z,12.50
2023-05-03T23:50:30.731Z,12.40
2023-05-03T23:52:58.766Z,12.40
2023-05-03T23:55:26.273Z,12.40
2023-05-03T23:57:53.785Z,12.40
